Time;durP1;ratioP1;P1;durP2;ratioP2;P2;SDS_P1;SDS_P2;PMS_P1;PMS_P2;Temp;Humidity;BMP_temperature;BMP_pressure;BME280_temperature;BME280_humidity;BME280_pressure;Samples;Min_cycle;Max_cycle;Signal;HPM_P1;HPM_P2
2022/07/30 00:09:03;;;;;;;5.3;8.5;;;;;;;17;100;98420;;;;
2022/07/30 00:20:03;;;;;;;5.3;8.5;;;;;;;17;100;98410;;;;
2022/07/30 00:30:02;;;;;;;4.5;8;;;;;;;17.1;100;98390;;;;
2022/07/30 00:41:03;;;;;;;4.5;8;;;;;;;17.3;100;98400;;;;
2022/07/30 00:51:03;;;;;;;5;7.7;;;;;;;17.4;100;98390;;;;
2022/07/30 01:01:03;;;;;;;5;7.7;;;;;;;17.5;100;98370;;;;
2022/07/30 01:12:05;;;;;;;5;7.7;;;;;;;17.4;100;98380;;;;
2022/07/30 01:23:02;;;;;;;5.7;8.5;;;;;;;17.3;100;98360;;;;
2022/07/30 01:34:03;;;;;;;5.7;8.5;;;;;;;17.3;100;98350;;;;
2022/07/30 01:45:02;;;;;;;5.7;8.5;;;;;;;17.2;100;98340;;;;
2022/07/30 01:55:03;;;;;;;8.7;13.8;;;;;;;17.2;100;98330;;;;
2022/07/30 02:06:03;;;;;;;8.7;13.8;;;;;;;17.2;100;98320;;;;
2022/07/30 02:16:02;;;;;;;8.7;13.8;;;;;;;17.2;100;98310;;;;
2022/07/30 02:26:03;;;;;;;8.5;11.3;;;;;;;17.3;100;98300;;;;
2022/07/30 02:36:03;;;;;;;8.5;11.3;;;;;;;17.2;100;98310;;;;
2022/07/30 02:47:02;;;;;;;8.5;11.3;;;;;;;17.3;100;98310;;;;
2022/07/30 02:58:02;;;;;;;8.1;11.3;;;;;;;17.2;100;98310;;;;
2022/07/30 03:09:02;;;;;;;8.1;11.3;;;;;;;17.2;100;98300;;;;
2022/07/30 03:20:03;;;;;;;8.1;11.3;;;;;;;17.4;100;98300;;;;
2022/07/30 03:30:03;;;;;;;6.7;10.1;;;;;;;17.4;100;98290;;;;
2022/07/30 03:41:02;;;;;;;6.7;10.1;;;;;;;17.4;100;98330;;;;
2022/07/30 03:51:02;;;;;;;8.1;14.4;;;;;;;17.5;100;98340;;;;
2022/07/30 04:02:02;;;;;;;8.1;14.4;;;;;;;17.8;100;98330;;;;
2022/07/30 04:12:02;;;;;;;8.1;14.4;;;;;;;17.8;100;98340;;;;
2022/07/30 04:22:02;;;;;;;8.2;12.6;;;;;;;18.1;100;98340;;;;
2022/07/30 04:32:02;;;;;;;8.2;12.6;;;;;;;18.2;100;98350;;;;
2022/07/30 04:43:02;;;;;;;8.2;12.6;;;;;;;18.3;100;98340;;;;
2022/07/30 04:53:02;;;;;;;9.1;10.8;;;;;;;18.2;100;98330;;;;
2022/07/30 05:04:02;;;;;;;9.1;10.8;;;;;;;18;100;98350;;;;
2022/07/30 05:15:02;;;;;;;9.1;10.8;;;;;;;18.4;100;98340;;;;
2022/07/30 05:26:02;;;;;;;9.2;12.7;;;;;;;18.5;100;98340;;;;
2022/07/30 05:37:02;;;;;;;9.2;12.7;;;;;;;19.1;100;98350;;;;
2022/07/30 05:47:02;;;;;;;9.2;12.7;;;;;;;19.4;100;98350;;;;
2022/07/30 05:57:02;;;;;;;8.6;12.4;;;;;;;19.7;100;98360;;;;
2022/07/30 06:08:02;;;;;;;8.6;12.4;;;;;;;19.7;100;98360;;;;
2022/07/30 06:18:02;;;;;;;8.6;12.4;;;;;;;20.1;100;98350;;;;
2022/07/30 06:28:02;;;;;;;7.8;11;;;;;;;20.2;100;98350;;;;
2022/07/30 06:39:02;;;;;;;7.8;11;;;;;;;20.4;100;98340;;;;
2022/07/30 06:49:02;;;;;;;7.8;11;;;;;;;20.6;100;98330;;;;
2022/07/30 07:00:02;;;;;;;8.9;11.9;;;;;;;20.7;100;98340;;;;
2022/07/30 07:10:02;;;;;;;8.9;11.9;;;;;;;20.8;100;98340;;;;
2022/07/30 07:21:02;;;;;;;6.8;10.5;;;;;;;21;100;98330;;;;
2022/07/30 07:31:02;;;;;;;6.8;10.5;;;;;;;21.4;100;98330;;;;
2022/07/30 07:42:02;;;;;;;6.8;10.5;;;;;;;21.6;100;98310;;;;
2022/07/30 07:52:02;;;;;;;5.2;7.6;;;;;;;21.5;100;98300;;;;
2022/07/30 08:03:02;;;;;;;5.2;7.6;;;;;;;22;100;98300;;;;
2022/07/30 08:13:03;;;;;;;5.2;7.6;;;;;;;22.3;100;98290;;;;
2022/07/30 08:23:03;;;;;;;4.3;7.5;;;;;;;22.2;100;98280;;;;
2022/07/30 08:34:02;;;;;;;4.3;7.5;;;;;;;23;100;98280;;;;
2022/07/30 08:44:02;;;;;;;4.3;7.5;;;;;;;23.4;100;98270;;;;
2022/07/30 08:55:02;;;;;;;3.9;6.3;;;;;;;23.9;100;98270;;;;
2022/07/30 09:05:02;;;;;;;3.9;6.3;;;;;;;24;100;98260;;;;
2022/07/30 09:16:02;;;;;;;3.9;6.3;;;;;;;24.3;100;98240;;;;
2022/07/30 09:26:02;;;;;;;3.1;5;;;;;;;25;100;98240;;;;
2022/07/30 09:37:02;;;;;;;3.1;5;;;;;;;24.8;100;98250;;;;
2022/07/30 09:47:02;;;;;;;3.1;5;;;;;;;25;100;98250;;;;
2022/07/30 09:58:02;;;;;;;3.2;6.4;;;;;;;25;100;98240;;;;
2022/07/30 10:09:02;;;;;;;3.2;6.4;;;;;;;25.8;100;98230;;;;
2022/07/30 10:19:02;;;;;;;3.2;6.4;;;;;;;26.6;100;98220;;;;
2022/07/30 10:29:02;;;;;;;3.3;6.5;;;;;;;26.8;100;98210;;;;
2022/07/30 10:40:02;;;;;;;3.3;6.5;;;;;;;27.3;100;98210;;;;
2022/07/30 10:50:02;;;;;;;3.3;6.5;;;;;;;27.4;100;98210;;;;
2022/07/30 11:00:02;;;;;;;3.3;6.5;;;;;;;27.9;100;98200;;;;
2022/07/30 11:11:02;;;;;;;3.3;6.5;;;;;;;27.5;100;98190;;;;
2022/07/30 11:21:02;;;;;;;3.3;6.5;;;;;;;27.7;100;98190;;;;
2022/07/30 11:32:02;;;;;;;2.6;6;;;;;;;28;100;98180;;;;
2022/07/30 11:42:02;;;;;;;2.6;6;;;;;;;28;100;98170;;;;
2022/07/30 11:52:02;;;;;;;3;5.4;;;;;;;28.2;100;98160;;;;
2022/07/30 12:03:03;;;;;;;3;5.4;;;;;;;28.1;100;98140;;;;
2022/07/30 12:13:03;;;;;;;3;5.4;;;;;;;28.1;100;98130;;;;
2022/07/30 12:24:02;;;;;;;4.1;6.6;;;;;;;28.1;100;98140;;;;
2022/07/30 12:35:02;;;;;;;4.1;6.6;;;;;;;27.3;100;98160;;;;
2022/07/30 12:45:02;;;;;;;4.1;6.6;;;;;;;27.1;100;98160;;;;
2022/07/30 12:55:02;;;;;;;3.8;6.6;;;;;;;26.3;100;98180;;;;
2022/07/30 13:05:03;;;;;;;3.8;6.6;;;;;;;23.5;100;98180;;;;
2022/07/30 13:15:02;;;;;;;3.8;6.6;;;;;;;22.7;100;98190;;;;
2022/07/30 13:25:02;;;;;;;3.6;7.3;;;;;;;22;100;98170;;;;
2022/07/30 13:36:02;;;;;;;3.6;7.3;;;;;;;21.4;100;98150;;;;
2022/07/30 13:46:02;;;;;;;3.6;7.3;;;;;;;21.3;100;98150;;;;
2022/07/30 13:57:02;;;;;;;3.5;5.5;;;;;;;20.9;100;98140;;;;
2022/07/30 14:07:02;;;;;;;3.5;5.5;;;;;;;20.9;100;98130;;;;
2022/07/30 14:18:03;;;;;;;3.5;5.5;;;;;;;20.5;100;98120;;;;
2022/07/30 14:29:02;;;;;;;4.4;7.8;;;;;;;20.8;100;98110;;;;
2022/07/30 14:39:03;;;;;;;4.4;7.8;;;;;;;20.8;100;98100;;;;
2022/07/30 14:50:02;;;;;;;4.4;7.8;;;;;;;21.1;100;98090;;;;
2022/07/30 15:00:02;;;;;;;6;9;;;;;;;21.2;100;98100;;;;
2022/07/30 15:11:02;;;;;;;6;9;;;;;;;21.2;100;98100;;;;
2022/07/30 15:22:02;;;;;;;8.4;10.7;;;;;;;21.3;100;98100;;;;
2022/07/30 15:32:02;;;;;;;8.4;10.7;;;;;;;21.1;100;98100;;;;
2022/07/30 15:43:02;;;;;;;8.4;10.7;;;;;;;21.1;100;98100;;;;
2022/07/30 15:54:02;;;;;;;9;11.2;;;;;;;21.1;100;98100;;;;
2022/07/30 16:04:02;;;;;;;9;11.2;;;;;;;20.8;100;98090;;;;
2022/07/30 16:14:02;;;;;;;9;11.2;;;;;;;20.7;100;98090;;;;
2022/07/30 16:25:02;;;;;;;9.2;11.1;;;;;;;20.4;100;98070;;;;
2022/07/30 16:35:02;;;;;;;9.2;11.1;;;;;;;20.3;100;98070;;;;
2022/07/30 16:46:02;;;;;;;9.2;11.1;;;;;;;20.1;100;98070;;;;
2022/07/30 16:56:02;;;;;;;10.8;13.5;;;;;;;20.1;100;98080;;;;
2022/07/30 17:07:02;;;;;;;10.8;13.5;;;;;;;19.9;100;98070;;;;
2022/07/30 17:17:02;;;;;;;10.8;13.5;;;;;;;19.9;100;98080;;;;
2022/07/30 17:28:02;;;;;;;12.1;16;;;;;;;19.4;100;98060;;;;
2022/07/30 17:38:02;;;;;;;12.1;16;;;;;;;19.3;100;98070;;;;
2022/07/30 17:49:02;;;;;;;12.1;16;;;;;;;19.2;100;98060;;;;
2022/07/30 17:59:02;;;;;;;9.3;12.2;;;;;;;19.2;100;98070;;;;
2022/07/30 18:09:02;;;;;;;9.3;12.2;;;;;;;19.1;100;98060;;;;
2022/07/30 18:20:02;;;;;;;9.3;12.2;;;;;;;19.1;100;98070;;;;
2022/07/30 18:30:02;;;;;;;13.3;15.2;;;;;;;19.2;100;98080;;;;
2022/07/30 18:41:02;;;;;;;13.3;15.2;;;;;;;19.1;100;98070;;;;
2022/07/30 18:52:02;;;;;;;9.7;11.3;;;;;;;19;100;98070;;;;
2022/07/30 19:03:02;;;;;;;9.7;11.3;;;;;;;19;100;98070;;;;
2022/07/30 19:14:02;;;;;;;9.7;11.3;;;;;;;19;100;98060;;;;
2022/07/30 19:24:02;;;;;;;12;15.2;;;;;;;19.1;100;98050;;;;
2022/07/30 19:35:02;;;;;;;12;15.2;;;;;;;18.9;100;98040;;;;
2022/07/30 19:45:02;;;;;;;12;15.2;;;;;;;18.7;100;98040;;;;
2022/07/30 19:56:03;;;;;;;8.1;10.7;;;;;;;18.5;100;98040;;;;
2022/07/30 20:07:02;;;;;;;8.1;10.7;;;;;;;18.1;100;98040;;;;
2022/07/30 20:17:02;;;;;;;8.1;10.7;;;;;;;18.1;100;98030;;;;
2022/07/30 20:27:02;;;;;;;5.2;6.9;;;;;;;18;100;98040;;;;
2022/07/30 20:37:02;;;;;;;5.2;6.9;;;;;;;18;100;98030;;;;
2022/07/30 20:48:02;;;;;;;5.2;6.9;;;;;;;17.8;100;98030;;;;
2022/07/30 20:58:04;;;;;;;9.8;12.4;;;;;;;17.7;100;98030;;;;
2022/07/30 21:08:02;;;;;;;9.8;12.4;;;;;;;17.8;100;98030;;;;
2022/07/30 21:18:02;;;;;;;9.8;12.4;;;;;;;17.7;100;98040;;;;
2022/07/30 21:29:02;;;;;;;9;11.1;;;;;;;17.6;100;98040;;;;
2022/07/30 21:40:02;;;;;;;9;11.1;;;;;;;17.6;100;98020;;;;
2022/07/30 21:50:02;;;;;;;9;11.1;;;;;;;17.6;100;98030;;;;
2022/07/30 22:00:02;;;;;;;12.3;15.2;;;;;;;17.6;100;98040;;;;
2022/07/30 22:11:02;;;;;;;12.3;15.2;;;;;;;17.2;100;98040;;;;
2022/07/30 22:21:02;;;;;;;12.3;15.2;;;;;;;17.1;100;98020;;;;
2022/07/30 22:31:02;;;;;;;15.1;17.7;;;;;;;17;100;98010;;;;
2022/07/30 22:42:02;;;;;;;15.1;17.7;;;;;;;16.9;100;97990;;;;
2022/07/30 22:52:02;;;;;;;15.5;20.1;;;;;;;17;100;97990;;;;
2022/07/30 23:02:02;;;;;;;15.5;20.1;;;;;;;17.1;100;97990;;;;
2022/07/30 23:13:01;;;;;;;15.5;20.1;;;;;;;17;100;97980;;;;
2022/07/30 23:23:02;;;;;;;14.3;22.8;;;;;;;17;100;97970;;;;
2022/07/30 23:34:02;;;;;;;14.3;22.8;;;;;;;16.9;100;97960;;;;
2022/07/30 23:45:02;;;;;;;14.3;22.8;;;;;;;16.9;100;97950;;;;
2022/07/30 23:56:02;;;;;;;14.5;19.6;;;;;;;16.7;100;97940;;;;
